Time;durP1;ratioP1;P1;durP2;ratioP2;P2;SDS_P1;SDS_P2;PMS_P1;PMS_P2;Temp;Humidity;BMP_temperature;BMP_pressure;BME280_temperature;BME280_humidity;BME280_pressure;Samples;Min_cycle;Max_cycle;Signal;HPM_P1;HPM_P2
2023/09/21 00:02:24;;;;;;;2.83;2.50;;;17.40;99.90;;;;;;5220775;28;20457;-48
2023/09/21 00:04:55;;;;;;;3.20;2.70;;;17.40;99.90;;;;;;5222302;28;20434;-49
2023/09/21 00:07:27;;;;;;;4.13;2.70;;;17.40;99.90;;;;;;5223412;28;20487;-49
2023/09/21 00:09:57;;;;;;;2.60;2.07;;;17.40;99.90;;;;;;5208767;28;20206;-49
2023/09/21 00:12:28;;;;;;;2.10;1.90;;;17.30;99.90;;;;;;5222560;28;20437;-48
2023/09/21 00:14:59;;;;;;;2.77;2.57;;;17.30;99.90;;;;;;5209364;28;20286;-49
2023/09/21 00:17:32;;;;;;;2.37;2.27;;;17.30;99.90;;;;;;5197077;28;20191;-49
2023/09/21 00:20:12;;;;;;;2.07;1.87;;;17.30;99.90;;;;;;5218026;28;20179;-50
2023/09/21 00:22:43;;;;;;;2.20;1.70;;;17.30;99.90;;;;;;5213036;28;20944;-49
2023/09/21 00:25:14;;;;;;;5.10;2.23;;;17.20;99.90;;;;;;5220975;28;20536;-49
2023/09/21 00:27:45;;;;;;;2.37;2.17;;;17.10;99.90;;;;;;5215260;28;20535;-50
2023/09/21 00:30:16;;;;;;;4.33;2.40;;;17.10;99.90;;;;;;5225320;28;20437;-50
2023/09/21 00:32:47;;;;;;;2.97;2.77;;;17.00;99.90;;;;;;5223767;28;20815;-49
2023/09/21 00:35:18;;;;;;;2.13;2.03;;;17.00;99.90;;;;;;5215859;28;20209;-50
2023/09/21 00:37:49;;;;;;;2.20;2.03;;;16.90;99.90;;;;;;5222966;28;20176;-49
2023/09/21 00:40:20;;;;;;;6.50;2.53;;;16.90;99.90;;;;;;5218579;28;20467;-49
2023/09/21 00:42:51;;;;;;;2.30;2.10;;;16.90;99.90;;;;;;5218541;28;20207;-49
2023/09/21 00:45:22;;;;;;;6.10;2.60;;;16.80;99.90;;;;;;5222839;28;20461;-49
2023/09/21 00:47:54;;;;;;;3.30;2.70;;;16.80;99.90;;;;;;5217978;28;20451;-49
2023/09/21 00:50:25;;;;;;;2.10;2.10;;;16.80;99.90;;;;;;5224474;28;20171;-49
2023/09/21 00:52:56;;;;;;;3.17;2.80;;;16.80;99.90;;;;;;5219259;28;20483;-50
2023/09/21 00:55:30;;;;;;;5.07;2.03;;;16.70;99.90;;;;;;5213906;28;20801;-49
2023/09/21 00:58:03;;;;;;;8.90;2.60;;;16.70;99.90;;;;;;5222833;28;20544;-50
2023/09/21 01:00:34;;;;;;;2.37;2.27;;;16.60;99.90;;;;;;5221115;28;20487;-49
2023/09/21 01:03:07;;;;;;;2.00;1.90;;;16.60;99.90;;;;;;5228407;28;20538;-50
2023/09/21 01:05:42;;;;;;;2.67;2.47;;;16.60;99.90;;;;;;5226601;28;20477;-49
2023/09/21 01:08:17;;;;;;;2.57;2.37;;;16.60;99.90;;;;;;5226262;28;20429;-48
2023/09/21 01:10:49;;;;;;;6.90;2.53;;;16.50;99.90;;;;;;5223471;28;20417;-49
2023/09/21 01:13:20;;;;;;;6.33;2.00;;;16.50;99.90;;;;;;5207074;28;20433;-49
2023/09/21 01:16:01;;;;;;;2.77;2.57;;;16.50;99.90;;;;;;5228688;28;20826;-49
2023/09/21 01:18:33;;;;;;;2.37;2.27;;;16.50;99.90;;;;;;5216723;28;20711;-49
2023/09/21 01:21:08;;;;;;;2.80;2.20;;;16.50;99.90;;;;;;5214409;28;20861;-48
2023/09/21 01:23:46;;;;;;;3.30;2.53;;;16.50;99.90;;;;;;5215973;28;20433;-49
2023/09/21 01:26:18;;;;;;;2.27;2.03;;;16.50;99.90;;;;;;5223552;28;20469;-50
2023/09/21 01:28:49;;;;;;;3.23;2.43;;;16.50;99.90;;;;;;5219661;28;20453;-50
2023/09/21 01:31:20;;;;;;;2.20;2.10;;;16.50;99.90;;;;;;5224608;28;20462;-48
2023/09/21 01:33:50;;;;;;;3.23;2.37;;;16.50;99.90;;;;;;5225523;28;20441;-48
2023/09/21 01:36:23;;;;;;;2.10;2.00;;;16.50;99.90;;;;;;5217290;28;20794;-48
2023/09/21 01:38:54;;;;;;;2.97;2.60;;;16.50;99.90;;;;;;5220941;28;20206;-49
2023/09/21 01:41:24;;;;;;;9.70;2.30;;;16.50;99.90;;;;;;5222685;28;20481;-49
2023/09/21 01:43:55;;;;;;;2.27;2.17;;;16.40;99.90;;;;;;5213608;28;20821;-49
2023/09/21 01:46:26;;;;;;;2.20;2.10;;;16.40;99.90;;;;;;5211917;28;20195;-48
2023/09/21 01:48:57;;;;;;;2.50;2.30;;;16.50;99.90;;;;;;5213480;28;20194;-50
2023/09/21 01:51:28;;;;;;;4.87;2.20;;;16.40;99.90;;;;;;5214034;28;20914;-49
2023/09/21 01:53:58;;;;;;;2.70;2.53;;;16.40;99.90;;;;;;5198775;28;20188;-49
2023/09/21 01:56:29;;;;;;;2.50;2.40;;;16.40;99.90;;;;;;5222179;28;20215;-48
2023/09/21 01:59:00;;;;;;;4.97;2.17;;;16.30;99.90;;;;;;5228900;28;20210;-49
2023/09/21 02:01:31;;;;;;;3.07;2.77;;;16.30;99.90;;;;;;5223887;28;20207;-48
2023/09/21 02:04:02;;;;;;;1.70;1.60;;;16.20;99.90;;;;;;5226233;28;20429;-48
2023/09/21 02:06:33;;;;;;;9.03;3.27;;;16.20;99.90;;;;;;5226265;28;20445;-48
2023/09/21 02:09:05;;;;;;;4.37;2.50;;;16.20;99.90;;;;;;5217245;28;20465;-49
2023/09/21 02:11:35;;;;;;;2.43;1.93;;;16.10;99.90;;;;;;5227507;28;20179;-49
2023/09/21 02:14:08;;;;;;;2.03;1.93;;;16.10;99.90;;;;;;5224764;28;20957;-49
2023/09/21 02:16:38;;;;;;;2.83;2.23;;;16.10;99.90;;;;;;5219577;28;20199;-50
2023/09/21 02:19:10;;;;;;;2.70;2.47;;;16.10;99.90;;;;;;5226573;28;20490;-49
2023/09/21 02:21:41;;;;;;;3.23;2.33;;;16.00;99.90;;;;;;5214734;28;20683;-49
2023/09/21 02:24:12;;;;;;;1.77;1.73;;;16.00;99.90;;;;;;5221061;28;20437;-49
2023/09/21 02:26:42;;;;;;;2.57;2.13;;;16.00;99.90;;;;;;5223912;28;20200;-49
2023/09/21 02:29:13;;;;;;;2.83;2.67;;;15.90;99.90;;;;;;5227618;28;20631;-49
2023/09/21 02:31:45;;;;;;;2.70;2.30;;;15.90;99.90;;;;;;5227817;28;20183;-48
2023/09/21 02:34:16;;;;;;;2.30;2.10;;;15.90;99.90;;;;;;5221623;28;20190;-49
2023/09/21 02:36:47;;;;;;;5.53;2.70;;;15.90;99.90;;;;;;5219105;28;20463;-50
2023/09/21 02:39:18;;;;;;;5.43;2.50;;;15.90;99.90;;;;;;5222274;28;20736;-48
2023/09/21 02:41:49;;;;;;;2.30;2.17;;;16.00;99.90;;;;;;5225407;28;20207;-49
2023/09/21 02:44:20;;;;;;;2.17;2.07;;;15.90;99.90;;;;;;5226761;28;20182;-49
2023/09/21 02:46:51;;;;;;;2.63;2.43;;;15.90;99.90;;;;;;5212350;28;20211;-49
2023/09/21 02:49:21;;;;;;;2.60;2.40;;;15.90;99.90;;;;;;5222906;28;20179;-49
2023/09/21 02:51:52;;;;;;;2.10;2.10;;;15.90;99.90;;;;;;5221817;28;20518;-49
2023/09/21 02:54:23;;;;;;;2.30;2.13;;;15.80;99.90;;;;;;5222606;28;20179;-48
2023/09/21 02:56:53;;;;;;;7.30;2.70;;;15.80;99.90;;;;;;5221629;28;20276;-49
2023/09/21 02:59:26;;;;;;;2.90;2.53;;;15.80;99.90;;;;;;5228546;28;20171;-48
2023/09/21 03:01:56;;;;;;;2.20;2.03;;;15.80;99.90;;;;;;5225883;28;20601;-49
2023/09/21 03:04:27;;;;;;;8.33;2.50;;;15.80;99.90;;;;;;5220947;28;20440;-48
2023/09/21 03:06:59;;;;;;;5.40;2.60;;;15.70;99.90;;;;;;5222460;28;20226;-47
2023/09/21 03:09:30;;;;;;;3.47;2.67;;;15.60;99.90;;;;;;5217009;28;20182;-48
2023/09/21 03:12:01;;;;;;;2.70;2.50;;;15.60;99.90;;;;;;5211131;28;20434;-48
2023/09/21 03:14:31;;;;;;;6.70;2.90;;;15.60;99.90;;;;;;5220021;28;20642;-48
2023/09/21 03:17:04;;;;;;;5.13;2.00;;;15.60;99.90;;;;;;5218650;28;20260;-48
2023/09/21 03:19:35;;;;;;;2.77;2.37;;;15.60;99.90;;;;;;5225245;28;20187;-48
2023/09/21 03:22:05;;;;;;;3.13;2.10;;;15.60;99.90;;;;;;5224729;28;20514;-48
2023/09/21 03:24:39;;;;;;;7.50;2.33;;;15.60;99.90;;;;;;5222800;28;20181;-50
2023/09/21 03:27:10;;;;;;;3.67;2.50;;;15.60;99.90;;;;;;5217797;28;20282;-48
2023/09/21 03:29:41;;;;;;;2.50;2.40;;;15.50;99.90;;;;;;5218983;28;20446;-47
2023/09/21 03:32:14;;;;;;;2.40;2.10;;;15.50;99.90;;;;;;5219618;28;20532;-48
2023/09/21 03:34:46;;;;;;;3.20;3.00;;;15.50;99.90;;;;;;5221576;28;20179;-49
2023/09/21 03:37:17;;;;;;;2.07;1.93;;;15.50;99.90;;;;;;5219864;28;20490;-50
2023/09/21 03:39:48;;;;;;;2.40;2.10;;;15.50;99.90;;;;;;5225711;28;20433;-49
2023/09/21 03:42:18;;;;;;;3.80;2.60;;;15.50;99.90;;;;;;5219938;28;20210;-49
2023/09/21 03:44:49;;;;;;;4.40;1.93;;;15.50;99.90;;;;;;5224829;28;20198;-49
2023/09/21 03:47:20;;;;;;;3.60;2.80;;;15.50;99.90;;;;;;5196948;28;20550;-49
2023/09/21 03:49:51;;;;;;;2.37;2.27;;;15.50;99.90;;;;;;5203430;28;20188;-49
2023/09/21 03:52:22;;;;;;;2.87;2.30;;;15.50;99.90;;;;;;5208787;28;20217;-49
2023/09/21 03:54:53;;;;;;;2.47;2.27;;;15.50;99.90;;;;;;5218423;28;20670;-48
2023/09/21 03:57:23;;;;;;;2.20;2.10;;;15.50;99.90;;;;;;5220944;28;20600;-48
2023/09/21 03:59:57;;;;;;;2.00;1.93;;;15.50;99.90;;;;;;5223706;28;20281;-50
2023/09/21 04:02:27;;;;;;;2.50;2.30;;;15.50;99.90;;;;;;5223454;28;20210;-48
2023/09/21 04:05:09;;;;;;;12.87;3.53;;;15.50;99.90;;;;;;5215751;28;20441;-50
2023/09/21 04:07:40;;;;;;;3.23;2.70;;;15.50;99.90;;;;;;5203658;28;20180;-49
2023/09/21 04:10:11;;;;;;;2.80;2.60;;;15.50;99.90;;;;;;5208229;28;20438;-50
2023/09/21 04:12:43;;;;;;;2.77;2.53;;;15.60;99.90;;;;;;5222791;28;20437;-50
2023/09/21 04:15:16;;;;;;;2.60;2.40;;;15.60;99.90;;;;;;5224326;28;20821;-50
2023/09/21 04:17:47;;;;;;;2.07;1.90;;;15.60;99.90;;;;;;5225077;28;20941;-48
2023/09/21 04:20:19;;;;;;;2.73;2.10;;;15.60;99.90;;;;;;5224869;28;20425;-48
2023/09/21 04:22:52;;;;;;;6.63;1.83;;;15.70;99.90;;;;;;5225167;28;20256;-49
2023/09/21 04:25:22;;;;;;;5.90;2.13;;;15.70;99.90;;;;;;5218062;28;20458;-46
2023/09/21 04:27:53;;;;;;;2.20;2.10;;;15.70;99.90;;;;;;5210950;28;20437;-47
2023/09/21 04:30:24;;;;;;;7.03;2.77;;;15.60;99.90;;;;;;5221255;28;20201;-46
2023/09/21 04:32:58;;;;;;;2.90;2.60;;;15.60;99.90;;;;;;5224183;28;20426;-46
2023/09/21 04:35:29;;;;;;;3.53;3.03;;;15.60;99.90;;;;;;5222575;28;20261;-47
2023/09/21 04:38:00;;;;;;;2.60;2.40;;;15.60;99.90;;;;;;5219653;28;20442;-46
2023/09/21 04:40:31;;;;;;;2.77;2.57;;;15.50;99.90;;;;;;5225136;28;20204;-46
2023/09/21 04:43:02;;;;;;;2.93;2.73;;;15.50;99.90;;;;;;5223324;28;20515;-45
2023/09/21 04:45:33;;;;;;;2.73;2.53;;;15.50;99.90;;;;;;5204673;28;20190;-47
2023/09/21 04:48:04;;;;;;;3.50;2.77;;;15.40;99.90;;;;;;5222933;28;20202;-50
2023/09/21 04:50:35;;;;;;;3.00;2.80;;;15.40;99.90;;;;;;5205728;28;20187;-46
2023/09/21 04:53:05;;;;;;;3.20;2.70;;;15.40;99.90;;;;;;5223854;28;20548;-47
2023/09/21 04:55:36;;;;;;;2.77;2.57;;;15.40;99.90;;;;;;5216499;28;20206;-49
2023/09/21 04:58:07;;;;;;;9.17;2.63;;;15.40;99.90;;;;;;5215777;28;20249;-48
2023/09/21 05:00:38;;;;;;;2.53;2.30;;;15.40;99.90;;;;;;5221211;28;20190;-49
2023/09/21 05:03:10;;;;;;;7.50;2.60;;;15.40;99.90;;;;;;5220280;28;20221;-47
2023/09/21 05:05:40;;;;;;;4.33;2.90;;;15.40;99.90;;;;;;5211361;28;20204;-48
2023/09/21 05:08:11;;;;;;;5.73;2.77;;;15.40;99.90;;;;;;5223428;28;20444;-48
2023/09/21 05:10:43;;;;;;;7.90;3.67;;;15.40;99.90;;;;;;5219366;28;20336;-48
2023/09/21 05:13:14;;;;;;;2.97;2.77;;;15.40;99.90;;;;;;5213081;28;20512;-48
2023/09/21 05:15:46;;;;;;;3.80;2.37;;;15.50;99.90;;;;;;5220794;28;20202;-48
2023/09/21 05:18:17;;;;;;;4.47;3.00;;;15.50;99.90;;;;;;5222465;28;20211;-50
2023/09/21 05:20:49;;;;;;;3.33;3.10;;;15.50;99.90;;;;;;5219126;28;20430;-47
2023/09/21 05:23:19;;;;;;;2.60;2.50;;;15.50;99.90;;;;;;5220320;28;20217;-49
2023/09/21 05:25:50;;;;;;;4.30;2.40;;;15.60;99.90;;;;;;5217995;28;20453;-50
2023/09/21 05:28:21;;;;;;;4.40;3.00;;;15.60;99.90;;;;;;5227746;28;20179;-48
2023/09/21 05:30:54;;;;;;;4.27;2.90;;;15.60;99.90;;;;;;5218474;28;20179;-49
2023/09/21 05:33:24;;;;;;;5.63;3.10;;;15.70;99.90;;;;;;5224745;28;20442;-48
2023/09/21 05:35:55;;;;;;;3.60;3.30;;;15.70;99.90;;;;;;5228119;28;20438;-49
2023/09/21 05:38:26;;;;;;;6.80;2.53;;;15.70;99.90;;;;;;5225242;28;20289;-50
2023/09/21 05:40:57;;;;;;;3.20;2.93;;;15.80;99.90;;;;;;5215366;28;20183;-48
2023/09/21 05:43:29;;;;;;;3.80;3.30;;;15.90;99.90;;;;;;5227526;28;20302;-49
2023/09/21 05:45:59;;;;;;;2.63;2.53;;;15.90;99.90;;;;;;5227062;28;20329;-48
2023/09/21 05:48:31;;;;;;;2.83;2.70;;;15.90;99.90;;;;;;5222097;28;20435;-50
2023/09/21 05:51:04;;;;;;;15.00;3.43;;;16.00;99.90;;;;;;5198249;28;20198;-48
2023/09/21 05:53:35;;;;;;;5.53;3.80;;;16.10;99.90;;;;;;5212063;28;20415;-49
2023/09/21 05:56:06;;;;;;;6.27;3.17;;;16.20;99.90;;;;;;5219477;28;20454;-49
2023/09/21 05:58:37;;;;;;;3.30;3.10;;;16.80;99.90;;;;;;5212886;28;20183;-47
2023/09/21 06:01:07;;;;;;;6.80;3.57;;;18.90;99.90;;;;;;5228703;28;20437;-49
2023/09/21 06:03:38;;;;;;;3.50;3.10;;;21.40;99.90;;;;;;5223616;28;20171;-48
2023/09/21 06:06:10;;;;;;;6.13;3.63;;;23.10;98.70;;;;;;5228227;28;20191;-48
2023/09/21 06:08:40;;;;;;;3.07;2.80;;;23.50;94.50;;;;;;5226620;28;20183;-49
2023/09/21 06:11:11;;;;;;;6.70;2.90;;;23.90;92.30;;;;;;5201162;28;20441;-48
2023/09/21 06:13:42;;;;;;;5.00;3.50;;;23.60;90.20;;;;;;5219965;28;20269;-49
2023/09/21 06:16:13;;;;;;;3.50;2.60;;;22.40;92.00;;;;;;5224291;28;20270;-49
2023/09/21 06:18:43;;;;;;;10.70;2.53;;;21.90;92.80;;;;;;5226806;28;20441;-49
2023/09/21 06:21:15;;;;;;;3.57;3.30;;;21.10;93.70;;;;;;5227264;28;20187;-49
2023/09/21 06:23:49;;;;;;;5.50;3.00;;;20.20;95.80;;;;;;5223729;28;20267;-48
2023/09/21 06:26:22;;;;;;;4.77;3.20;;;19.40;98.10;;;;;;5204402;28;20481;-49
2023/09/21 06:28:53;;;;;;;2.97;2.80;;;19.20;99.90;;;;;;5214602;28;20437;-50
2023/09/21 06:31:24;;;;;;;6.00;2.40;;;19.60;99.90;;;;;;5225868;28;20513;-49
2023/09/21 06:33:58;;;;;;;4.00;3.27;;;21.10;99.30;;;;;;5224901;28;20544;-49
2023/09/21 06:36:29;;;;;;;2.90;2.70;;;22.80;95.40;;;;;;5226645;28;20202;-48
2023/09/21 06:38:59;;;;;;;5.77;2.50;;;24.70;90.80;;;;;;5225147;28;20460;-48
2023/09/21 06:41:30;;;;;;;11.43;2.97;;;25.80;80.60;;;;;;5225711;28;20202;-48
2023/09/21 06:44:02;;;;;;;4.00;3.33;;;25.80;77.20;;;;;;5208143;28;20213;-48
2023/09/21 06:46:33;;;;;;;7.13;2.63;;;26.40;72.90;;;;;;5226173;28;20457;-50
2023/09/21 06:49:04;;;;;;;2.43;2.20;;;27.10;69.90;;;;;;5215048;28;20436;-49
2023/09/21 06:51:35;;;;;;;5.27;2.57;;;28.70;63.40;;;;;;5205834;28;20191;-49
2023/09/21 06:54:06;;;;;;;4.97;2.63;;;29.80;57.60;;;;;;5222672;28;20444;-49
2023/09/21 06:56:36;;;;;;;3.47;3.13;;;31.20;54.00;;;;;;5223957;28;20298;-49
2023/09/21 06:59:07;;;;;;;4.07;2.80;;;31.90;49.70;;;;;;5210389;28;20199;-49
2023/09/21 07:01:39;;;;;;;5.17;2.70;;;32.30;47.60;;;;;;5222540;28;20211;-49
2023/09/21 07:04:10;;;;;;;3.17;2.93;;;32.90;45.70;;;;;;5222914;28;20639;-48
2023/09/21 07:06:41;;;;;;;7.07;2.90;;;33.00;44.80;;;;;;5226115;28;20457;-48
2023/09/21 07:09:13;;;;;;;8.40;3.13;;;33.70;43.40;;;;;;5226408;28;20176;-49
2023/09/21 07:11:44;;;;;;;2.10;1.90;;;34.50;42.00;;;;;;5220269;28;20437;-48
2023/09/21 07:14:15;;;;;;;2.10;2.00;;;35.50;40.40;;;;;;5214565;28;20433;-48
2023/09/21 07:16:46;;;;;;;4.77;2.20;;;36.60;38.30;;;;;;5225919;28;20670;-49
2023/09/21 07:19:17;;;;;;;42.20;3.30;;;37.20;36.70;;;;;;5221155;28;20242;-50
2023/09/21 07:21:47;;;;;;;3.67;2.10;;;37.50;36.00;;;;;;5224009;28;20642;-48
2023/09/21 07:24:18;;;;;;;2.80;2.50;;;37.50;35.10;;;;;;5219262;28;20186;-50
2023/09/21 07:26:49;;;;;;;3.80;2.57;;;37.60;34.70;;;;;;5212067;28;20215;-50
2023/09/21 07:29:20;;;;;;;3.43;2.17;;;37.90;34.00;;;;;;5223054;28;20178;-49
2023/09/21 07:31:51;;;;;;;1.70;1.53;;;37.90;33.70;;;;;;5203990;28;20189;-49
2023/09/21 07:34:22;;;;;;;3.40;2.00;;;38.00;33.60;;;;;;5222707;28;20178;-50
2023/09/21 07:36:52;;;;;;;4.00;2.03;;;37.90;33.30;;;;;;5219233;28;20213;-48
2023/09/21 07:39:23;;;;;;;2.70;2.60;;;38.20;33.00;;;;;;5215485;28;20185;-48
2023/09/21 07:41:54;;;;;;;3.10;2.17;;;38.40;33.10;;;;;;5212905;28;20742;-49
2023/09/21 07:44:25;;;;;;;2.13;2.03;;;38.40;32.50;;;;;;5214992;28;20187;-49
2023/09/21 07:46:57;;;;;;;2.97;2.50;;;38.20;32.80;;;;;;5211086;28;20195;-49
2023/09/21 07:49:28;;;;;;;2.63;2.33;;;37.80;32.50;;;;;;5213053;28;20184;-50
2023/09/21 07:51:58;;;;;;;3.57;1.73;;;36.90;34.00;;;;;;5213112;28;20550;-50
2023/09/21 07:54:29;;;;;;;8.10;1.87;;;35.90;35.60;;;;;;5215490;28;20703;-48
2023/09/21 07:57:00;;;;;;;2.43;2.20;;;34.60;37.40;;;;;;5212085;28;20218;-50
2023/09/21 07:59:31;;;;;;;3.47;2.17;;;33.70;38.70;;;;;;5215368;28;20205;-50
2023/09/21 08:02:03;;;;;;;3.23;1.90;;;32.20;40.80;;;;;;5214857;28;20222;-49
2023/09/21 08:04:33;;;;;;;6.20;2.20;;;30.80;43.10;;;;;;5215650;28;20191;-49
2023/09/21 08:07:05;;;;;;;3.17;2.87;;;30.00;44.90;;;;;;5215704;28;20885;-49
2023/09/21 08:09:36;;;;;;;2.30;2.17;;;28.60;47.00;;;;;;5214483;28;20271;-49
2023/09/21 08:12:07;;;;;;;2.20;2.10;;;27.10;49.90;;;;;;5213383;28;20434;-51
2023/09/21 08:14:37;;;;;;;2.80;2.03;;;26.20;52.00;;;;;;5211674;28;20270;-50
2023/09/21 08:17:09;;;;;;;7.80;2.30;;;25.50;53.70;;;;;;5214824;28;20226;-49
2023/09/21 08:19:40;;;;;;;5.43;2.57;;;24.70;56.50;;;;;;5213909;28;20188;-50
2023/09/21 08:22:11;;;;;;;7.60;2.90;;;24.20;57.10;;;;;;5214154;28;20466;-49
2023/09/21 08:24:42;;;;;;;2.20;2.10;;;24.00;58.10;;;;;;5212789;28;20438;-50
2023/09/21 08:27:13;;;;;;;3.63;2.60;;;23.80;58.80;;;;;;5213006;28;20466;-49
2023/09/21 08:29:44;;;;;;;4.90;2.00;;;23.50;59.80;;;;;;5213442;28;20217;-48
2023/09/21 08:32:15;;;;;;;2.37;2.27;;;23.30;60.60;;;;;;5215593;28;20183;-48
2023/09/21 08:34:48;;;;;;;7.53;3.13;;;23.10;61.50;;;;;;5214320;28;20515;-49
2023/09/21 08:37:18;;;;;;;2.30;2.17;;;23.00;62.50;;;;;;5213918;28;20458;-49
2023/09/21 08:39:49;;;;;;;3.60;2.10;;;22.80;63.20;;;;;;5214943;28;20934;-50
2023/09/21 08:42:20;;;;;;;2.20;2.10;;;22.80;64.30;;;;;;5213938;28;20234;-48
2023/09/21 08:44:51;;;;;;;7.90;2.60;;;22.90;64.60;;;;;;5195149;28;20589;-49
2023/09/21 08:47:23;;;;;;;2.73;2.53;;;23.00;64.60;;;;;;5213420;28;20183;-50
2023/09/21 08:49:54;;;;;;;7.47;2.30;;;23.10;65.10;;;;;;5209474;28;20443;-50
2023/09/21 08:52:26;;;;;;;2.37;2.10;;;23.20;65.50;;;;;;5215748;28;20437;-50
2023/09/21 08:54:56;;;;;;;4.57;2.43;;;23.20;65.60;;;;;;5219050;28;20197;-51
2023/09/21 08:57:27;;;;;;;2.27;2.13;;;23.20;65.90;;;;;;5211227;28;20818;-50
2023/09/21 09:00:08;;;;;;;2.80;2.53;;;23.20;66.70;;;;;;5222366;28;20214;-50
2023/09/21 09:02:39;;;;;;;2.73;2.20;;;23.30;66.60;;;;;;5215285;28;20497;-50
2023/09/21 09:05:11;;;;;;;1.80;1.70;;;23.40;66.70;;;;;;5217641;28;20508;-51
2023/09/21 09:07:42;;;;;;;1.70;1.60;;;23.50;66.60;;;;;;5215450;28;20663;-49
2023/09/21 09:10:14;;;;;;;4.93;2.27;;;23.60;66.30;;;;;;5213334;28;20433;-50
2023/09/21 09:12:46;;;;;;;2.10;1.87;;;23.70;66.10;;;;;;5212062;28;20187;-50
2023/09/21 09:15:33;;;;;;;4.40;2.17;;;23.80;66.30;;;;;;5218753;28;20468;-51
2023/09/21 09:18:06;;;;;;;2.57;2.10;;;23.80;66.10;;;;;;5219869;28;20471;-51
2023/09/21 09:20:36;;;;;;;2.10;2.00;;;23.90;66.40;;;;;;5210754;28;20442;-50
2023/09/21 09:23:10;;;;;;;2.03;1.93;;;23.80;66.90;;;;;;5214119;28;20471;-50
2023/09/21 09:25:43;;;;;;;2.83;1.80;;;23.70;67.00;;;;;;5212439;28;20212;-50
2023/09/21 09:28:14;;;;;;;2.00;1.90;;;23.70;67.70;;;;;;5218045;28;20976;-51
2023/09/21 09:30:45;;;;;;;3.63;1.77;;;23.80;67.20;;;;;;5216408;28;20437;-51
2023/09/21 09:33:16;;;;;;;1.77;1.67;;;23.80;67.30;;;;;;5218397;28;20187;-53
2023/09/21 09:35:48;;;;;;;2.40;2.30;;;24.00;67.00;;;;;;5218880;28;20454;-51
2023/09/21 09:38:20;;;;;;;5.30;1.80;;;24.10;67.30;;;;;;5212697;28;20192;-50
2023/09/21 09:40:52;;;;;;;1.90;1.80;;;24.20;66.90;;;;;;5214827;28;20981;-49
2023/09/21 09:43:27;;;;;;;1.60;1.50;;;24.30;66.60;;;;;;5208704;28;20526;-51
2023/09/21 09:46:08;;;;;;;4.83;2.27;;;24.20;66.50;;;;;;5215388;28;21056;-50
2023/09/21 09:48:39;;;;;;;4.30;3.90;;;24.30;66.70;;;;;;5221016;28;20432;-49
2023/09/21 09:51:16;;;;;;;1.73;1.70;;;24.40;66.80;;;;;;5221867;28;20546;-50
2023/09/21 09:53:48;;;;;;;3.50;1.90;;;24.40;66.80;;;;;;5215705;28;20599;-51
2023/09/21 09:56:22;;;;;;;1.90;1.80;;;24.50;66.90;;;;;;5209493;28;20466;-50
2023/09/21 09:58:57;;;;;;;2.70;2.00;;;24.50;66.40;;;;;;5213130;28;20437;-49
2023/09/21 10:01:29;;;;;;;3.10;1.97;;;24.50;66.50;;;;;;5214127;28;20539;-50
2023/09/21 10:04:00;;;;;;;2.70;1.60;;;24.60;66.40;;;;;;5220870;28;20514;-49
2023/09/21 10:06:35;;;;;;;1.63;1.53;;;24.50;67.10;;;;;;5215629;28;20462;-49
2023/09/21 10:09:13;;;;;;;5.13;1.93;;;24.60;66.90;;;;;;5216190;28;20460;-50
2023/09/21 10:11:48;;;;;;;2.20;2.00;;;24.60;66.50;;;;;;5204624;28;20438;-49
2023/09/21 10:14:19;;;;;;;5.50;2.00;;;24.60;66.60;;;;;;5215982;28;20929;-49
2023/09/21 10:16:55;;;;;;;1.87;1.77;;;24.60;66.20;;;;;;5211166;28;20471;-49
2023/09/21 10:19:28;;;;;;;1.77;1.67;;;24.60;66.50;;;;;;5219067;28;20187;-51
2023/09/21 10:21:59;;;;;;;1.20;1.20;;;24.60;66.20;;;;;;5218189;28;20512;-50
2023/09/21 10:24:32;;;;;;;1.77;1.67;;;24.70;65.60;;;;;;5217061;28;20482;-50
2023/09/21 10:27:06;;;;;;;2.17;1.73;;;24.70;65.60;;;;;;5215060;28;20453;-50
2023/09/21 10:29:37;;;;;;;4.47;1.67;;;24.80;65.10;;;;;;5215936;28;20446;-51
2023/09/21 10:32:07;;;;;;;1.93;1.83;;;24.80;64.60;;;;;;5216393;28;20610;-51
2023/09/21 10:34:48;;;;;;;1.17;1.17;;;24.80;64.70;;;;;;5220924;28;20437;-51
2023/09/21 10:37:28;;;;;;;2.03;1.60;;;25.00;64.00;;;;;;5218868;28;20681;-50
2023/09/21 10:39:59;;;;;;;1.97;1.80;;;25.10;63.30;;;;;;5216084;28;20434;-50
2023/09/21 10:42:33;;;;;;;2.67;1.67;;;25.10;63.30;;;;;;5221610;28;20485;-50
2023/09/21 10:45:09;;;;;;;1.63;1.53;;;25.20;62.60;;;;;;5223549;28;20207;-49
2023/09/21 10:47:48;;;;;;;2.47;1.43;;;25.20;62.40;;;;;;5197426;28;20449;-50
2023/09/21 10:50:20;;;;;;;2.20;1.60;;;25.30;62.30;;;;;;5222176;28;20473;-50
2023/09/21 10:52:52;;;;;;;4.30;1.80;;;25.30;61.90;;;;;;5219041;28;20926;-49
2023/09/21 10:55:23;;;;;;;4.83;1.53;;;25.40;61.80;;;;;;5217385;28;20461;-50
2023/09/21 10:57:56;;;;;;;1.30;1.30;;;25.40;61.60;;;;;;5218572;28;21051;-50
2023/09/21 11:00:27;;;;;;;1.53;1.43;;;25.50;61.50;;;;;;5217233;28;20607;-50
2023/09/21 11:02:59;;;;;;;3.37;1.53;;;25.50;61.40;;;;;;5216678;28;20469;-50
2023/09/21 11:05:29;;;;;;;1.90;1.17;;;25.60;61.40;;;;;;5211460;28;21006;-50
2023/09/21 11:08:00;;;;;;;3.20;1.63;;;25.70;61.30;;;;;;5211790;28;20438;-50
2023/09/21 11:10:31;;;;;;;9.13;2.10;;;25.60;61.00;;;;;;5214300;28;20188;-49
2023/09/21 11:13:03;;;;;;;2.60;1.83;;;25.60;61.70;;;;;;5213653;28;20256;-50
2023/09/21 11:15:34;;;;;;;1.77;1.67;;;25.50;61.90;;;;;;5222076;28;20449;-49
2023/09/21 11:18:05;;;;;;;1.20;1.10;;;25.60;61.90;;;;;;5215432;28;20499;-49
2023/09/21 11:20:36;;;;;;;2.10;2.00;;;25.70;61.90;;;;;;5216534;28;20238;-50
2023/09/21 11:23:09;;;;;;;1.17;1.17;;;25.90;61.70;;;;;;5221357;28;20210;-48
2023/09/21 11:25:40;;;;;;;1.30;1.30;;;25.90;61.10;;;;;;5217519;28;20200;-50
2023/09/21 11:28:13;;;;;;;1.90;1.40;;;25.90;60.90;;;;;;5209414;28;20485;-51
2023/09/21 11:30:45;;;;;;;5.13;1.50;;;25.90;61.00;;;;;;5209625;28;20245;-51
2023/09/21 11:33:19;;;;;;;5.60;1.63;;;25.90;60.70;;;;;;5201988;28;20433;-49
2023/09/21 11:35:51;;;;;;;1.47;1.47;;;25.90;60.50;;;;;;5219308;28;20528;-48
2023/09/21 11:38:21;;;;;;;1.17;1.17;;;25.90;60.60;;;;;;5215333;28;20939;-49
2023/09/21 11:40:53;;;;;;;1.40;1.40;;;25.90;60.00;;;;;;5216962;28;20443;-50
2023/09/21 11:43:25;;;;;;;3.37;1.40;;;26.00;59.70;;;;;;5218642;28;20280;-50
2023/09/21 11:45:55;;;;;;;1.43;1.33;;;26.00;59.60;;;;;;5218510;28;20480;-50
2023/09/21 11:48:29;;;;;;;2.23;2.20;;;26.00;59.80;;;;;;5219072;28;20921;-50
2023/09/21 11:51:04;;;;;;;1.50;1.50;;;26.10;59.70;;;;;;5203807;28;20210;-49
2023/09/21 11:53:35;;;;;;;1.17;1.17;;;26.20;59.40;;;;;;5219998;28;20433;-49
2023/09/21 11:56:07;;;;;;;1.20;1.20;;;26.20;59.10;;;;;;5207388;28;20477;-51
2023/09/21 11:58:38;;;;;;;8.03;1.60;;;26.30;58.60;;;;;;5215864;28;20195;-49
2023/09/21 12:03:41;;;;;;;1.57;1.50;;;26.30;57.80;;;;;;5215354;28;20211;-49
2023/09/21 12:06:12;;;;;;;1.47;1.13;;;26.30;58.10;;;;;;5222884;28;20464;-49
2023/09/21 12:08:44;;;;;;;1.40;1.30;;;26.30;57.80;;;;;;5217948;28;20434;-50
2023/09/21 12:11:15;;;;;;;1.93;1.77;;;26.40;58.00;;;;;;5218360;28;20494;-49
2023/09/21 12:13:46;;;;;;;2.33;1.73;;;26.40;57.50;;;;;;5216554;28;20569;-49
2023/09/21 12:16:17;;;;;;;2.03;1.80;;;26.40;57.40;;;;;;5215436;28;20217;-51
2023/09/21 12:18:48;;;;;;;1.27;1.13;;;26.40;56.80;;;;;;5215006;28;20183;-50
2023/09/21 12:21:20;;;;;;;3.87;1.57;;;26.50;56.60;;;;;;5213157;28;20240;-50
2023/09/21 12:23:52;;;;;;;1.37;1.37;;;26.60;56.50;;;;;;5207811;28;20195;-50
2023/09/21 12:26:22;;;;;;;3.13;1.60;;;26.70;56.20;;;;;;5225688;28;20458;-49
2023/09/21 12:28:53;;;;;;;1.87;1.77;;;26.70;56.20;;;;;;5214479;28;20457;-53
2023/09/21 12:31:25;;;;;;;3.50;1.60;;;26.70;56.60;;;;;;5197414;28;20179;-49
2023/09/21 12:33:56;;;;;;;1.60;1.50;;;26.70;55.80;;;;;;5220489;28;20274;-49
2023/09/21 12:36:26;;;;;;;1.63;1.43;;;26.80;55.10;;;;;;5217611;28;20546;-50
2023/09/21 12:38:59;;;;;;;8.10;1.53;;;26.80;54.60;;;;;;5237301;28;20554;-50
2023/09/21 12:41:30;;;;;;;2.57;1.80;;;26.90;54.50;;;;;;5216041;28;20258;-48
2023/09/21 12:44:02;;;;;;;1.83;1.47;;;27.00;53.90;;;;;;5201934;28;20447;-49
2023/09/21 12:46:33;;;;;;;2.80;1.70;;;27.00;53.30;;;;;;5213833;28;20202;-49
2023/09/21 12:49:05;;;;;;;5.20;1.50;;;27.00;53.70;;;;;;5214454;28;20429;-48
2023/09/21 12:51:36;;;;;;;3.70;1.80;;;27.10;53.80;;;;;;5211981;28;20187;-49
2023/09/21 12:54:07;;;;;;;4.20;2.33;;;27.00;53.20;;;;;;5223424;28;20473;-49
2023/09/21 12:56:38;;;;;;;1.27;1.27;;;27.00;53.00;;;;;;5216599;28;20242;-49
2023/09/21 12:59:09;;;;;;;1.00;1.00;;;27.00;52.00;;;;;;5215610;28;20508;-50
2023/09/21 13:01:39;;;;;;;3.27;1.30;;;27.10;52.30;;;;;;5218177;28;20187;-50
2023/09/21 13:04:11;;;;;;;1.80;1.70;;;27.10;52.10;;;;;;5220185;28;20202;-49
2023/09/21 13:06:43;;;;;;;3.20;1.53;;;27.20;51.70;;;;;;5215265;28;20199;-52
2023/09/21 13:09:14;;;;;;;3.07;1.33;;;27.20;51.60;;;;;;5219741;28;20474;-50
2023/09/21 13:11:45;;;;;;;2.10;2.00;;;27.30;51.70;;;;;;5212403;28;20563;-51